sensor_id;sensor_type;location;lat;lon;timestamp;temperature;humidity
74294;DHT22;64044;59.904;10.738;2023-07-20T00:01:14;17.20;49.70
74294;DHT22;64044;59.904;10.738;2023-07-20T00:03:39;17.10;49.60
74294;DHT22;64044;59.904;10.738;2023-07-20T00:06:05;17.00;49.60
74294;DHT22;64044;59.904;10.738;2023-07-20T00:08:31;17.00;49.60
74294;DHT22;64044;59.904;10.738;2023-07-20T00:10:57;17.00;49.70
74294;DHT22;64044;59.904;10.738;2023-07-20T00:13:23;16.90;49.70
74294;DHT22;64044;59.904;10.738;2023-07-20T00:15:48;16.80;49.80
74294;DHT22;64044;59.904;10.738;2023-07-20T00:18:15;16.80;50.00
74294;DHT22;64044;59.904;10.738;2023-07-20T00:20:40;16.70;50.00
74294;DHT22;64044;59.904;10.738;2023-07-20T00:23:06;16.70;50.10
74294;DHT22;64044;59.904;10.738;2023-07-20T00:25:32;16.60;50.30
74294;DHT22;64044;59.904;10.738;2023-07-20T00:27:59;16.50;50.40
74294;DHT22;64044;59.904;10.738;2023-07-20T00:30:24;16.50;50.70
74294;DHT22;64044;59.904;10.738;2023-07-20T00:32:50;16.50;50.90
74294;DHT22;64044;59.904;10.738;2023-07-20T00:35:16;16.40;51.10
74294;DHT22;64044;59.904;10.738;2023-07-20T00:37:42;16.30;51.30
74294;DHT22;64044;59.904;10.738;2023-07-20T00:40:08;16.30;51.60
74294;DHT22;64044;59.904;10.738;2023-07-20T00:42:34;16.20;51.70
74294;DHT22;64044;59.904;10.738;2023-07-20T00:44:59;16.20;51.90
74294;DHT22;64044;59.904;10.738;2023-07-20T00:47:26;16.20;52.00
74294;DHT22;64044;59.904;10.738;2023-07-20T00:49:52;16.10;52.20
74294;DHT22;64044;59.904;10.738;2023-07-20T00:52:20;16.10;52.30
74294;DHT22;64044;59.904;10.738;2023-07-20T00:54:47;16.00;52.40
74294;DHT22;64044;59.904;10.738;2023-07-20T00:57:16;16.00;52.40
74294;DHT22;64044;59.904;10.738;2023-07-20T00:59:43;15.90;52.60
74294;DHT22;64044;59.904;10.738;2023-07-20T01:02:09;15.90;52.80
74294;DHT22;64044;59.904;10.738;2023-07-20T01:04:35;15.80;52.90
74294;DHT22;64044;59.904;10.738;2023-07-20T01:09:52;15.80;53.30
74294;DHT22;64044;59.904;10.738;2023-07-20T01:12:26;15.70;53.80
74294;DHT22;64044;59.904;10.738;2023-07-20T01:14:53;15.70;53.80
74294;DHT22;64044;59.904;10.738;2023-07-20T01:17:19;15.70;53.80
74294;DHT22;64044;59.904;10.738;2023-07-20T01:19:45;15.60;54.00
74294;DHT22;64044;59.904;10.738;2023-07-20T01:33:07;15.40;55.10
74294;DHT22;64044;59.904;10.738;2023-07-20T01:35:34;15.40;54.70
74294;DHT22;64044;59.904;10.738;2023-07-20T01:38:02;15.40;54.90
74294;DHT22;64044;59.904;10.738;2023-07-20T01:40:29;15.40;55.00
74294;DHT22;64044;59.904;10.738;2023-07-20T01:42:55;15.30;55.10
74294;DHT22;64044;59.904;10.738;2023-07-20T01:45:21;15.30;55.40
74294;DHT22;64044;59.904;10.738;2023-07-20T01:48:12;15.30;55.60
74294;DHT22;64044;59.904;10.738;2023-07-20T01:50:38;15.30;55.50
74294;DHT22;64044;59.904;10.738;2023-07-20T01:53:03;15.30;54.80
74294;DHT22;64044;59.904;10.738;2023-07-20T01:55:29;15.20;54.90
74294;DHT22;64044;59.904;10.738;2023-07-20T01:57:55;15.20;54.90
74294;DHT22;64044;59.904;10.738;2023-07-20T02:00:21;15.20;55.00
74294;DHT22;64044;59.904;10.738;2023-07-20T02:02:50;15.20;55.20
74294;DHT22;64044;59.904;10.738;2023-07-20T02:05:16;15.10;55.30
74294;DHT22;64044;59.904;10.738;2023-07-20T02:07:42;15.10;55.10
74294;DHT22;64044;59.904;10.738;2023-07-20T02:10:08;15.20;54.90
74294;DHT22;64044;59.904;10.738;2023-07-20T02:12:34;15.10;54.80
74294;DHT22;64044;59.904;10.738;2023-07-20T02:15:00;15.10;55.00
74294;DHT22;64044;59.904;10.738;2023-07-20T02:17:26;15.10;54.80
74294;DHT22;64044;59.904;10.738;2023-07-20T02:19:56;15.10;54.60
74294;DHT22;64044;59.904;10.738;2023-07-20T02:22:23;15.10;54.80
74294;DHT22;64044;59.904;10.738;2023-07-20T02:24:49;15.10;54.90
74294;DHT22;64044;59.904;10.738;2023-07-20T02:27:16;15.10;55.10
74294;DHT22;64044;59.904;10.738;2023-07-20T02:29:42;15.10;55.10
74294;DHT22;64044;59.904;10.738;2023-07-20T02:32:08;15.10;55.10
74294;DHT22;64044;59.904;10.738;2023-07-20T02:34:37;15.10;55.30
74294;DHT22;64044;59.904;10.738;2023-07-20T02:37:04;15.00;55.70
74294;DHT22;64044;59.904;10.738;2023-07-20T02:39:30;15.10;56.60
74294;DHT22;64044;59.904;10.738;2023-07-20T02:41:56;15.10;57.50
74294;DHT22;64044;59.904;10.738;2023-07-20T02:44:21;15.10;57.70
74294;DHT22;64044;59.904;10.738;2023-07-20T02:46:47;15.10;57.20
74294;DHT22;64044;59.904;10.738;2023-07-20T02:49:15;15.20;56.80
74294;DHT22;64044;59.904;10.738;2023-07-20T02:51:41;15.30;57.30
74294;DHT22;64044;59.904;10.738;2023-07-20T02:54:07;15.30;56.70
74294;DHT22;64044;59.904;10.738;2023-07-20T02:56:33;15.30;56.30
74294;DHT22;64044;59.904;10.738;2023-07-20T02:59:01;15.30;56.30
74294;DHT22;64044;59.904;10.738;2023-07-20T03:01:26;15.40;56.60
74294;DHT22;64044;59.904;10.738;2023-07-20T03:03:55;15.40;56.20
74294;DHT22;64044;59.904;10.738;2023-07-20T03:06:21;15.50;56.10
74294;DHT22;64044;59.904;10.738;2023-07-20T03:08:46;15.60;55.90
74294;DHT22;64044;59.904;10.738;2023-07-20T03:11:18;15.60;55.90
74294;DHT22;64044;59.904;10.738;2023-07-20T03:13:44;15.60;55.70
74294;DHT22;64044;59.904;10.738;2023-07-20T03:16:11;15.60;55.70
74294;DHT22;64044;59.904;10.738;2023-07-20T03:18:38;15.70;55.60
74294;DHT22;64044;59.904;10.738;2023-07-20T03:21:05;15.70;55.60
74294;DHT22;64044;59.904;10.738;2023-07-20T03:23:31;15.70;55.30
74294;DHT22;64044;59.904;10.738;2023-07-20T03:25:57;15.80;55.30
74294;DHT22;64044;59.904;10.738;2023-07-20T03:28:23;15.80;55.40
74294;DHT22;64044;59.904;10.738;2023-07-20T03:30:56;15.80;55.60
74294;DHT22;64044;59.904;10.738;2023-07-20T03:33:31;15.80;55.10
74294;DHT22;64044;59.904;10.738;2023-07-20T03:35:57;15.80;55.40
74294;DHT22;64044;59.904;10.738;2023-07-20T03:38:24;15.90;55.00
74294;DHT22;64044;59.904;10.738;2023-07-20T03:40:53;15.90;55.30
74294;DHT22;64044;59.904;10.738;2023-07-20T03:43:20;15.90;55.20
74294;DHT22;64044;59.904;10.738;2023-07-20T03:45:46;15.90;54.90
74294;DHT22;64044;59.904;10.738;2023-07-20T03:48:16;15.90;54.60
74294;DHT22;64044;59.904;10.738;2023-07-20T03:50:43;15.90;54.20
74294;DHT22;64044;59.904;10.738;2023-07-20T03:53:09;15.90;54.00
74294;DHT22;64044;59.904;10.738;2023-07-20T03:55:35;15.90;54.10
74294;DHT22;64044;59.904;10.738;2023-07-20T03:58:01;16.00;54.20
74294;DHT22;64044;59.904;10.738;2023-07-20T04:00:27;15.90;54.10
74294;DHT22;64044;59.904;10.738;2023-07-20T04:02:53;16.00;54.30
74294;DHT22;64044;59.904;10.738;2023-07-20T04:05:19;16.00;54.40
74294;DHT22;64044;59.904;10.738;2023-07-20T04:07:45;16.00;54.30
74294;DHT22;64044;59.904;10.738;2023-07-20T04:10:10;16.00;54.10
74294;DHT22;64044;59.904;10.738;2023-07-20T04:12:36;16.00;54.00
74294;DHT22;64044;59.904;10.738;2023-07-20T04:15:02;16.00;54.10
74294;DHT22;64044;59.904;10.738;2023-07-20T04:17:29;16.00;54.20
74294;DHT22;64044;59.904;10.738;2023-07-20T04:19:55;16.00;53.90
74294;DHT22;64044;59.904;10.738;2023-07-20T04:22:21;16.00;53.70
74294;DHT22;64044;59.904;10.738;2023-07-20T04:24:47;16.00;53.70
74294;DHT22;64044;59.904;10.738;2023-07-20T04:27:12;16.00;53.70
74294;DHT22;64044;59.904;10.738;2023-07-20T04:29:38;16.10;53.70
74294;DHT22;64044;59.904;10.738;2023-07-20T04:32:04;16.00;53.60
74294;DHT22;64044;59.904;10.738;2023-07-20T04:34:31;16.10;53.90
74294;DHT22;64044;59.904;10.738;2023-07-20T04:36:56;16.10;54.10
74294;DHT22;64044;59.904;10.738;2023-07-20T04:39:22;16.10;53.90
74294;DHT22;64044;59.904;10.738;2023-07-20T04:41:48;16.10;53.80
74294;DHT22;64044;59.904;10.738;2023-07-20T04:44:14;16.10;53.70
74294;DHT22;64044;59.904;10.738;2023-07-20T04:46:39;16.20;53.60
74294;DHT22;64044;59.904;10.738;2023-07-20T04:49:06;16.20;53.40
74294;DHT22;64044;59.904;10.738;2023-07-20T04:51:31;16.20;53.30
74294;DHT22;64044;59.904;10.738;2023-07-20T04:53:57;16.20;53.30
74294;DHT22;64044;59.904;10.738;2023-07-20T04:56:24;16.30;53.30
74294;DHT22;64044;59.904;10.738;2023-07-20T04:58:50;16.30;53.10
74294;DHT22;64044;59.904;10.738;2023-07-20T05:01:16;16.30;53.00
74294;DHT22;64044;59.904;10.738;2023-07-20T05:03:41;16.30;53.00
74294;DHT22;64044;59.904;10.738;2023-07-20T05:06:07;16.40;52.90
74294;DHT22;64044;59.904;10.738;2023-07-20T05:08:33;16.40;52.90
74294;DHT22;64044;59.904;10.738;2023-07-20T05:11:02;16.40;52.90
74294;DHT22;64044;59.904;10.738;2023-07-20T05:13:27;16.50;52.90
74294;DHT22;64044;59.904;10.738;2023-07-20T05:15:53;16.50;53.10
74294;DHT22;64044;59.904;10.738;2023-07-20T05:18:20;16.50;53.10
74294;DHT22;64044;59.904;10.738;2023-07-20T05:20:49;16.60;53.10
74294;DHT22;64044;59.904;10.738;2023-07-20T05:23:18;16.60;53.10
74294;DHT22;64044;59.904;10.738;2023-07-20T05:25:45;16.70;53.20
74294;DHT22;64044;59.904;10.738;2023-07-20T05:28:11;16.70;53.20
74294;DHT22;64044;59.904;10.738;2023-07-20T05:30:37;16.70;53.20
74294;DHT22;64044;59.904;10.738;2023-07-20T05:33:02;16.80;53.10
74294;DHT22;64044;59.904;10.738;2023-07-20T05:35:28;16.80;52.90
74294;DHT22;64044;59.904;10.738;2023-07-20T05:37:54;16.90;52.90
74294;DHT22;64044;59.904;10.738;2023-07-20T05:40:20;16.90;52.80
74294;DHT22;64044;59.904;10.738;2023-07-20T05:42:47;17.00;53.00
74294;DHT22;64044;59.904;10.738;2023-07-20T05:45:14;17.10;52.80
74294;DHT22;64044;59.904;10.738;2023-07-20T05:47:41;17.10;52.90
74294;DHT22;64044;59.904;10.738;2023-07-20T05:50:07;17.20;53.10
74294;DHT22;64044;59.904;10.738;2023-07-20T05:52:33;17.30;52.80
74294;DHT22;64044;59.904;10.738;2023-07-20T05:54:59;17.40;52.50
74294;DHT22;64044;59.904;10.738;2023-07-20T05:57:24;17.50;52.30
74294;DHT22;64044;59.904;10.738;2023-07-20T05:59:50;17.60;52.20
74294;DHT22;64044;59.904;10.738;2023-07-20T06:02:16;17.70;52.00
74294;DHT22;64044;59.904;10.738;2023-07-20T06:04:42;17.80;51.90
74294;DHT22;64044;59.904;10.738;2023-07-20T06:07:07;18.00;52.00
74294;DHT22;64044;59.904;10.738;2023-07-20T06:09:34;18.10;51.80
74294;DHT22;64044;59.904;10.738;2023-07-20T06:12:00;18.20;51.50
74294;DHT22;64044;59.904;10.738;2023-07-20T06:14:25;18.30;51.20
74294;DHT22;64044;59.904;10.738;2023-07-20T06:16:51;18.40;50.90
74294;DHT22;64044;59.904;10.738;2023-07-20T06:19:17;18.50;50.70
74294;DHT22;64044;59.904;10.738;2023-07-20T06:21:43;18.60;50.60
74294;DHT22;64044;59.904;10.738;2023-07-20T06:24:09;18.70;50.40
74294;DHT22;64044;59.904;10.738;2023-07-20T06:26:34;18.80;50.10
74294;DHT22;64044;59.904;10.738;2023-07-20T06:29:06;18.80;49.80
74294;DHT22;64044;59.904;10.738;2023-07-20T06:31:33;18.90;49.60
74294;DHT22;64044;59.904;10.738;2023-07-20T06:33:59;19.00;49.60
74294;DHT22;64044;59.904;10.738;2023-07-20T06:36:25;19.10;49.40
74294;DHT22;64044;59.904;10.738;2023-07-20T06:38:52;19.10;49.30
74294;DHT22;64044;59.904;10.738;2023-07-20T06:41:18;19.20;49.30
74294;DHT22;64044;59.904;10.738;2023-07-20T06:43:44;19.20;49.50
74294;DHT22;64044;59.904;10.738;2023-07-20T06:46:10;19.30;49.40
74294;DHT22;64044;59.904;10.738;2023-07-20T06:48:35;19.30;49.30
74294;DHT22;64044;59.904;10.738;2023-07-20T06:51:01;19.30;49.10
74294;DHT22;64044;59.904;10.738;2023-07-20T06:53:28;19.30;49.10
74294;DHT22;64044;59.904;10.738;2023-07-20T06:55:54;19.30;49.10
74294;DHT22;64044;59.904;10.738;2023-07-20T06:58:22;19.30;49.10
74294;DHT22;64044;59.904;10.738;2023-07-20T07:00:48;19.30;48.90
74294;DHT22;64044;59.904;10.738;2023-07-20T07:03:14;19.40;49.00
74294;DHT22;64044;59.904;10.738;2023-07-20T07:05:40;19.40;49.10
74294;DHT22;64044;59.904;10.738;2023-07-20T07:08:06;19.40;49.20
74294;DHT22;64044;59.904;10.738;2023-07-20T07:10:32;19.40;48.90
74294;DHT22;64044;59.904;10.738;2023-07-20T07:12:58;19.40;48.60
74294;DHT22;64044;59.904;10.738;2023-07-20T07:15:23;19.40;48.70
74294;DHT22;64044;59.904;10.738;2023-07-20T07:17:49;19.50;48.70
74294;DHT22;64044;59.904;10.738;2023-07-20T07:20:16;19.50;48.70
74294;DHT22;64044;59.904;10.738;2023-07-20T07:22:42;19.50;48.70
74294;DHT22;64044;59.904;10.738;2023-07-20T07:25:09;19.50;48.70
74294;DHT22;64044;59.904;10.738;2023-07-20T07:27:35;19.50;48.70
74294;DHT22;64044;59.904;10.738;2023-07-20T07:30:02;19.50;48.80
74294;DHT22;64044;59.904;10.738;2023-07-20T07:32:28;19.50;48.70
74294;DHT22;64044;59.904;10.738;2023-07-20T07:34:54;19.50;48.60
74294;DHT22;64044;59.904;10.738;2023-07-20T07:37:20;19.50;48.50
74294;DHT22;64044;59.904;10.738;2023-07-20T07:39:46;19.50;48.40
74294;DHT22;64044;59.904;10.738;2023-07-20T07:42:12;19.50;48.30
74294;DHT22;64044;59.904;10.738;2023-07-20T07:44:38;19.50;48.70
74294;DHT22;64044;59.904;10.738;2023-07-20T07:47:04;19.50;47.50
74294;DHT22;64044;59.904;10.738;2023-07-20T07:49:30;19.50;47.50
74294;DHT22;64044;59.904;10.738;2023-07-20T07:51:57;19.60;47.00
74294;DHT22;64044;59.904;10.738;2023-07-20T07:54:22;19.60;47.00
74294;DHT22;64044;59.904;10.738;2023-07-20T07:56:48;19.70;46.60
74294;DHT22;64044;59.904;10.738;2023-07-20T07:59:14;19.70;45.90
74294;DHT22;64044;59.904;10.738;2023-07-20T08:01:40;19.80;46.20
74294;DHT22;64044;59.904;10.738;2023-07-20T08:04:05;19.80;45.90
74294;DHT22;64044;59.904;10.738;2023-07-20T08:06:31;19.80;45.30
74294;DHT22;64044;59.904;10.738;2023-07-20T08:08:57;19.90;45.70
74294;DHT22;64044;59.904;10.738;2023-07-20T08:11:23;20.00;45.40
74294;DHT22;64044;59.904;10.738;2023-07-20T08:13:49;20.00;46.10
74294;DHT22;64044;59.904;10.738;2023-07-20T08:16:15;20.10;45.30
74294;DHT22;64044;59.904;10.738;2023-07-20T08:18:40;20.10;45.40
74294;DHT22;64044;59.904;10.738;2023-07-20T08:21:06;20.20;45.20
74294;DHT22;64044;59.904;10.738;2023-07-20T08:23:32;20.30;45.50
74294;DHT22;64044;59.904;10.738;2023-07-20T08:25:58;20.40;45.20
74294;DHT22;64044;59.904;10.738;2023-07-20T08:28:24;20.40;45.40
74294;DHT22;64044;59.904;10.738;2023-07-20T08:30:52;20.50;45.10
74294;DHT22;64044;59.904;10.738;2023-07-20T08:33:18;20.50;45.00
74294;DHT22;64044;59.904;10.738;2023-07-20T08:35:45;20.50;45.10
74294;DHT22;64044;59.904;10.738;2023-07-20T08:38:11;20.50;45.00
74294;DHT22;64044;59.904;10.738;2023-07-20T08:40:42;20.50;45.30
74294;DHT22;64044;59.904;10.738;2023-07-20T08:43:09;20.50;45.80
74294;DHT22;64044;59.904;10.738;2023-07-20T08:45:36;20.50;46.10
74294;DHT22;64044;59.904;10.738;2023-07-20T08:48:05;20.50;45.80
74294;DHT22;64044;59.904;10.738;2023-07-20T08:50:32;20.50;46.00
74294;DHT22;64044;59.904;10.738;2023-07-20T08:52:59;20.40;45.50
74294;DHT22;64044;59.904;10.738;2023-07-20T08:55:28;20.40;45.10
74294;DHT22;64044;59.904;10.738;2023-07-20T08:57:58;20.40;45.70
74294;DHT22;64044;59.904;10.738;2023-07-20T09:00:25;20.30;45.00
74294;DHT22;64044;59.904;10.738;2023-07-20T09:02:55;20.30;45.00
74294;DHT22;64044;59.904;10.738;2023-07-20T09:05:46;20.30;44.90
74294;DHT22;64044;59.904;10.738;2023-07-20T09:08:12;20.20;45.70
74294;DHT22;64044;59.904;10.738;2023-07-20T09:10:37;20.20;45.40
74294;DHT22;64044;59.904;10.738;2023-07-20T09:13:03;20.20;45.30
74294;DHT22;64044;59.904;10.738;2023-07-20T09:15:29;20.20;45.00
74294;DHT22;64044;59.904;10.738;2023-07-20T09:17:56;20.20;45.90
74294;DHT22;64044;59.904;10.738;2023-07-20T09:20:21;20.20;45.70
74294;DHT22;64044;59.904;10.738;2023-07-20T09:22:47;20.20;46.50
74294;DHT22;64044;59.904;10.738;2023-07-20T09:25:16;20.30;46.70
74294;DHT22;64044;59.904;10.738;2023-07-20T09:27:44;20.30;46.70
74294;DHT22;64044;59.904;10.738;2023-07-20T09:30:11;20.30;46.50
74294;DHT22;64044;59.904;10.738;2023-07-20T09:32:44;20.30;46.30
74294;DHT22;64044;59.904;10.738;2023-07-20T09:35:21;20.30;46.20
74294;DHT22;64044;59.904;10.738;2023-07-20T09:40:20;20.40;47.10
74294;DHT22;64044;59.904;10.738;2023-07-20T09:42:47;20.40;47.00
74294;DHT22;64044;59.904;10.738;2023-07-20T09:45:13;20.40;46.60
74294;DHT22;64044;59.904;10.738;2023-07-20T09:47:39;20.40;46.10
74294;DHT22;64044;59.904;10.738;2023-07-20T09:50:07;20.40;45.80
74294;DHT22;64044;59.904;10.738;2023-07-20T09:52:39;20.50;46.40
74294;DHT22;64044;59.904;10.738;2023-07-20T09:55:08;20.50;45.90
74294;DHT22;64044;59.904;10.738;2023-07-20T09:57:35;20.60;45.90
74294;DHT22;64044;59.904;10.738;2023-07-20T10:00:06;20.60;46.30
74294;DHT22;64044;59.904;10.738;2023-07-20T10:02:42;20.70;46.40
74294;DHT22;64044;59.904;10.738;2023-07-20T10:05:11;20.70;45.40
74294;DHT22;64044;59.904;10.738;2023-07-20T10:07:43;20.80;45.20
74294;DHT22;64044;59.904;10.738;2023-07-20T10:10:09;20.80;45.00
74294;DHT22;64044;59.904;10.738;2023-07-20T10:12:37;20.80;45.10
74294;DHT22;64044;59.904;10.738;2023-07-20T10:15:09;20.90;44.90
74294;DHT22;64044;59.904;10.738;2023-07-20T10:17:37;20.90;44.70
74294;DHT22;64044;59.904;10.738;2023-07-20T10:20:05;21.00;44.90
74294;DHT22;64044;59.904;10.738;2023-07-20T10:22:35;21.10;45.00
74294;DHT22;64044;59.904;10.738;2023-07-20T10:25:01;21.10;45.00
74294;DHT22;64044;59.904;10.738;2023-07-20T10:27:27;21.20;44.20
74294;DHT22;64044;59.904;10.738;2023-07-20T10:29:53;21.30;44.00
74294;DHT22;64044;59.904;10.738;2023-07-20T10:32:21;21.30;43.70
74294;DHT22;64044;59.904;10.738;2023-07-20T10:34:51;21.40;43.30
74294;DHT22;64044;59.904;10.738;2023-07-20T10:37:50;21.50;43.50
74294;DHT22;64044;59.904;10.738;2023-07-20T10:40:38;21.50;43.20
74294;DHT22;64044;59.904;10.738;2023-07-20T10:43:06;21.60;41.70
74294;DHT22;64044;59.904;10.738;2023-07-20T10:45:52;21.70;43.10
74294;DHT22;64044;59.904;10.738;2023-07-20T10:48:21;21.70;42.60
74294;DHT22;64044;59.904;10.738;2023-07-20T10:51:13;21.80;42.90
74294;DHT22;64044;59.904;10.738;2023-07-20T10:53:39;21.90;42.70
74294;DHT22;64044;59.904;10.738;2023-07-20T10:56:13;22.00;42.30
74294;DHT22;64044;59.904;10.738;2023-07-20T10:58:40;22.10;42.00
74294;DHT22;64044;59.904;10.738;2023-07-20T11:01:06;22.20;42.00
74294;DHT22;64044;59.904;10.738;2023-07-20T11:03:39;22.30;42.20
74294;DHT22;64044;59.904;10.738;2023-07-20T11:09:10;22.60;41.60
74294;DHT22;64044;59.904;10.738;2023-07-20T11:11:47;22.70;41.20
74294;DHT22;64044;59.904;10.738;2023-07-20T11:14:26;22.80;41.00
74294;DHT22;64044;59.904;10.738;2023-07-20T11:16:53;22.90;40.20
74294;DHT22;64044;59.904;10.738;2023-07-20T11:19:23;23.00;41.10
74294;DHT22;64044;59.904;10.738;2023-07-20T11:21:57;23.10;40.50
74294;DHT22;64044;59.904;10.738;2023-07-20T11:24:23;23.20;40.00
74294;DHT22;64044;59.904;10.738;2023-07-20T11:26:51;23.20;40.00
74294;DHT22;64044;59.904;10.738;2023-07-20T11:29:19;23.30;40.00
74294;DHT22;64044;59.904;10.738;2023-07-20T11:31:46;23.40;39.60
74294;DHT22;64044;59.904;10.738;2023-07-20T11:34:17;23.40;39.40
74294;DHT22;64044;59.904;10.738;2023-07-20T11:36:47;23.60;39.00
74294;DHT22;64044;59.904;10.738;2023-07-20T11:39:15;23.70;39.80
74294;DHT22;64044;59.904;10.738;2023-07-20T11:41:47;23.70;39.70
74294;DHT22;64044;59.904;10.738;2023-07-20T11:44:13;23.80;39.50
74294;DHT22;64044;59.904;10.738;2023-07-20T11:46:41;23.90;39.50
74294;DHT22;64044;59.904;10.738;2023-07-20T11:49:08;24.10;39.00
74294;DHT22;64044;59.904;10.738;2023-07-20T11:51:34;24.30;38.70
74294;DHT22;64044;59.904;10.738;2023-07-20T11:54:02;24.50;38.50
74294;DHT22;64044;59.904;10.738;2023-07-20T11:56:28;24.80;38.90
74294;DHT22;64044;59.904;10.738;2023-07-20T11:59:00;25.00;38.00
74294;DHT22;64044;59.904;10.738;2023-07-20T12:01:30;25.30;37.60
74294;DHT22;64044;59.904;10.738;2023-07-20T12:04:03;25.60;37.70
74294;DHT22;64044;59.904;10.738;2023-07-20T12:06:29;26.00;37.50
74294;DHT22;64044;59.904;10.738;2023-07-20T12:08:59;26.50;37.00
74294;DHT22;64044;59.904;10.738;2023-07-20T12:13:58;27.30;35.90
74294;DHT22;64044;59.904;10.738;2023-07-20T12:16:27;27.70;35.70
74294;DHT22;64044;59.904;10.738;2023-07-20T12:19:12;28.10;34.80
74294;DHT22;64044;59.904;10.738;2023-07-20T12:21:40;28.60;33.30
74294;DHT22;64044;59.904;10.738;2023-07-20T12:24:08;29.00;34.00
74294;DHT22;64044;59.904;10.738;2023-07-20T12:26:36;29.40;33.20
74294;DHT22;64044;59.904;10.738;2023-07-20T12:29:03;29.80;32.20
74294;DHT22;64044;59.904;10.738;2023-07-20T12:31:29;30.20;31.90
74294;DHT22;64044;59.904;10.738;2023-07-20T12:33:57;30.60;31.10
74294;DHT22;64044;59.904;10.738;2023-07-20T12:36:23;31.00;30.60
74294;DHT22;64044;59.904;10.738;2023-07-20T12:38:50;31.30;30.20
74294;DHT22;64044;59.904;10.738;2023-07-20T12:41:16;31.60;29.50
74294;DHT22;64044;59.904;10.738;2023-07-20T12:43:42;31.90;29.00
74294;DHT22;64044;59.904;10.738;2023-07-20T12:46:09;32.30;28.60
74294;DHT22;64044;59.904;10.738;2023-07-20T12:48:36;32.60;28.50
74294;DHT22;64044;59.904;10.738;2023-07-20T12:51:06;33.00;28.30
74294;DHT22;64044;59.904;10.738;2023-07-20T12:53:33;33.40;28.00
74294;DHT22;64044;59.904;10.738;2023-07-20T12:55:59;33.60;27.70
74294;DHT22;64044;59.904;10.738;2023-07-20T12:58:25;33.80;26.80
74294;DHT22;64044;59.904;10.738;2023-07-20T13:00:51;33.80;26.10
74294;DHT22;64044;59.904;10.738;2023-07-20T13:03:17;33.80;25.90
74294;DHT22;64044;59.904;10.738;2023-07-20T13:05:45;33.60;25.80
74294;DHT22;64044;59.904;10.738;2023-07-20T13:08:11;33.30;25.10
74294;DHT22;64044;59.904;10.738;2023-07-20T13:10:37;32.90;25.00
74294;DHT22;64044;59.904;10.738;2023-07-20T13:13:04;32.40;25.30
74294;DHT22;64044;59.904;10.738;2023-07-20T13:15:31;31.80;26.10
74294;DHT22;64044;59.904;10.738;2023-07-20T13:17:58;31.20;27.10
74294;DHT22;64044;59.904;10.738;2023-07-20T13:20:25;30.30;27.70
74294;DHT22;64044;59.904;10.738;2023-07-20T13:22:51;29.50;28.50
74294;DHT22;64044;59.904;10.738;2023-07-20T13:25:17;28.70;30.40
74294;DHT22;64044;59.904;10.738;2023-07-20T13:27:42;28.00;31.80
74294;DHT22;64044;59.904;10.738;2023-07-20T13:30:09;27.40;32.50
74294;DHT22;64044;59.904;10.738;2023-07-20T13:32:39;26.80;33.90
74294;DHT22;64044;59.904;10.738;2023-07-20T13:35:05;26.20;35.70
74294;DHT22;64044;59.904;10.738;2023-07-20T13:37:42;25.70;35.50
74294;DHT22;64044;59.904;10.738;2023-07-20T13:40:08;25.20;37.00
74294;DHT22;64044;59.904;10.738;2023-07-20T13:42:37;24.80;37.40
74294;DHT22;64044;59.904;10.738;2023-07-20T13:45:04;24.40;38.10
74294;DHT22;64044;59.904;10.738;2023-07-20T13:47:29;24.10;40.00
74294;DHT22;64044;59.904;10.738;2023-07-20T13:49:55;23.80;40.50
74294;DHT22;64044;59.904;10.738;2023-07-20T13:52:21;23.60;40.50
74294;DHT22;64044;59.904;10.738;2023-07-20T13:54:47;23.40;41.60
74294;DHT22;64044;59.904;10.738;2023-07-20T13:57:13;23.30;40.80
74294;DHT22;64044;59.904;10.738;2023-07-20T13:59:40;23.30;41.00
74294;DHT22;64044;59.904;10.738;2023-07-20T14:02:07;23.30;40.90
74294;DHT22;64044;59.904;10.738;2023-07-20T14:04:32;23.40;40.70
74294;DHT22;64044;59.904;10.738;2023-07-20T14:06:58;23.70;40.40
74294;DHT22;64044;59.904;10.738;2023-07-20T14:09:24;24.20;39.90
74294;DHT22;64044;59.904;10.738;2023-07-20T14:11:49;24.70;39.80
74294;DHT22;64044;59.904;10.738;2023-07-20T14:14:15;25.30;39.50
74294;DHT22;64044;59.904;10.738;2023-07-20T14:16:41;25.90;38.80
74294;DHT22;64044;59.904;10.738;2023-07-20T14:19:07;26.50;38.00
74294;DHT22;64044;59.904;10.738;2023-07-20T14:21:33;27.20;36.90
74294;DHT22;64044;59.904;10.738;2023-07-20T14:23:58;27.80;36.50
74294;DHT22;64044;59.904;10.738;2023-07-20T14:26:24;28.40;35.00
74294;DHT22;64044;59.904;10.738;2023-07-20T14:28:50;28.90;33.20
74294;DHT22;64044;59.904;10.738;2023-07-20T14:31:16;29.40;32.40
74294;DHT22;64044;59.904;10.738;2023-07-20T14:33:41;29.90;31.30
74294;DHT22;64044;59.904;10.738;2023-07-20T14:36:07;30.30;31.00
74294;DHT22;64044;59.904;10.738;2023-07-20T14:38:34;30.70;30.40
74294;DHT22;64044;59.904;10.738;2023-07-20T14:41:00;31.00;29.10
74294;DHT22;64044;59.904;10.738;2023-07-20T14:43:26;31.30;28.90
74294;DHT22;64044;59.904;10.738;2023-07-20T14:45:52;31.40;28.60
74294;DHT22;64044;59.904;10.738;2023-07-20T14:48:17;31.50;29.00
74294;DHT22;64044;59.904;10.738;2023-07-20T14:50:43;31.70;28.90
74294;DHT22;64044;59.904;10.738;2023-07-20T14:53:15;31.90;28.70
74294;DHT22;64044;59.904;10.738;2023-07-20T14:55:42;32.10;29.20
74294;DHT22;64044;59.904;10.738;2023-07-20T14:58:07;32.30;29.20
74294;DHT22;64044;59.904;10.738;2023-07-20T15:00:33;32.60;28.70
74294;DHT22;64044;59.904;10.738;2023-07-20T15:02:59;32.80;28.40
74294;DHT22;64044;59.904;10.738;2023-07-20T15:05:25;33.00;28.30
74294;DHT22;64044;59.904;10.738;2023-07-20T15:07:52;33.30;28.40
74294;DHT22;64044;59.904;10.738;2023-07-20T15:10:18;33.50;27.40
74294;DHT22;64044;59.904;10.738;2023-07-20T15:12:44;33.60;27.00
74294;DHT22;64044;59.904;10.738;2023-07-20T15:15:12;33.70;26.00
74294;DHT22;64044;59.904;10.738;2023-07-20T15:17:39;33.60;25.80
74294;DHT22;64044;59.904;10.738;2023-07-20T15:20:09;33.60;25.70
74294;DHT22;64044;59.904;10.738;2023-07-20T15:22:35;33.60;25.80
74294;DHT22;64044;59.904;10.738;2023-07-20T15:25:05;33.60;25.80
74294;DHT22;64044;59.904;10.738;2023-07-20T15:27:31;33.50;26.50
74294;DHT22;64044;59.904;10.738;2023-07-20T15:29:57;33.20;26.30
74294;DHT22;64044;59.904;10.738;2023-07-20T15:32:22;32.80;26.50
74294;DHT22;64044;59.904;10.738;2023-07-20T15:34:48;32.40;26.00
74294;DHT22;64044;59.904;10.738;2023-07-20T15:37:14;31.90;25.80